createdAt,value
2022-08-17T00:00:57.574Z,0
2022-08-17T00:01:52.422Z,0
2022-08-17T00:02:45.193Z,0
2022-08-17T00:03:29.415Z,0
2022-08-17T00:04:26.915Z,0
2022-08-17T00:05:26.892Z,0
2022-08-17T00:06:26.862Z,0
2022-08-17T00:07:26.609Z,0
2022-08-17T00:08:26.869Z,0
2022-08-17T00:09:26.873Z,0
2022-08-17T00:10:26.332Z,0
2022-08-17T00:11:26.853Z,0
2022-08-17T00:12:50.492Z,0
2022-08-17T00:13:26.578Z,0
2022-08-17T00:14:26.822Z,0
2022-08-17T00:15:26.316Z,0
2022-08-17T00:17:00.253Z,0
2022-08-17T00:17:26.538Z,0
2022-08-17T00:19:14.540Z,0
2022-08-17T00:20:37.699Z,0
2022-08-17T00:22:36.781Z,0
2022-08-17T00:22:47.546Z,0
2022-08-17T00:23:56.397Z,0
2022-08-17T00:24:47.128Z,0
2022-08-17T00:25:47.375Z,0
2022-08-17T00:26:51.943Z,0
2022-08-17T00:27:47.110Z,0
2022-08-17T00:28:47.038Z,0
2022-08-17T00:29:47.356Z,0
2022-08-17T00:30:59.800Z,0
2022-08-17T00:31:46.828Z,0
2022-08-17T00:33:23.703Z,0
2022-08-17T00:33:47.340Z,0
2022-08-17T00:34:47.056Z,0
2022-08-17T00:35:47.313Z,0
2022-08-17T00:36:46.789Z,0
2022-08-17T00:37:47.042Z,0
2022-08-17T00:38:47.029Z,0
2022-08-17T00:39:47.378Z,0
2022-08-17T00:40:55.717Z,0
2022-08-17T00:41:49.337Z,0
2022-08-17T00:42:47.083Z,0
2022-08-17T00:43:47.251Z,0
2022-08-17T00:44:46.731Z,0
2022-08-17T00:45:47.794Z,0
2022-08-17T00:46:46.999Z,0
2022-08-17T00:47:46.975Z,0
2022-08-17T00:48:46.953Z,0
2022-08-17T00:49:47.716Z,0
2022-08-17T00:50:46.957Z,0
2022-08-17T00:51:46.686Z,0
2022-08-17T00:52:47.004Z,0
2022-08-17T00:53:46.697Z,0
2022-08-17T00:54:49.501Z,0
2022-08-17T00:55:46.920Z,0
2022-08-17T00:56:47.165Z,0
2022-08-17T00:57:46.656Z,0
2022-08-17T00:58:46.903Z,0
2022-08-17T00:59:47.168Z,0
2022-08-17T01:00:47.219Z,0
2022-08-17T01:01:46.683Z,0
2022-08-17T01:02:49.812Z,0
2022-08-17T01:03:46.912Z,0
2022-08-17T01:04:46.856Z,0
2022-08-17T01:05:49.754Z,0
2022-08-17T01:06:47.346Z,0
2022-08-17T01:07:46.842Z,0
2022-08-17T01:08:46.320Z,0
2022-08-17T01:09:47.077Z,0
2022-08-17T01:11:08.098Z,0
2022-08-17T01:11:46.802Z,0
2022-08-17T01:12:46.891Z,0
2022-08-17T01:13:48.253Z,0
2022-08-17T01:14:47.038Z,0
2022-08-17T01:15:50.717Z,0
2022-08-17T01:16:46.780Z,0
2022-08-17T01:17:46.770Z,0
2022-08-17T01:18:47.033Z,0
2022-08-17T01:19:47.005Z,0
2022-08-17T01:20:55.491Z,0
2022-08-17T01:21:46.468Z,0
2022-08-17T01:22:46.836Z,0
2022-08-17T01:23:46.982Z,0
2022-08-17T01:24:46.708Z,0
2022-08-17T01:25:51.117Z,0
2022-08-17T01:26:47.038Z,0
2022-08-17T01:27:46.177Z,0
2022-08-17T01:29:02.703Z,0
2022-08-17T01:29:46.423Z,0
2022-08-17T01:31:04.765Z,0
2022-08-17T01:31:46.982Z,0
2022-08-17T01:32:46.998Z,0
2022-08-17T01:33:46.651Z,0
2022-08-17T01:34:56.960Z,0
2022-08-17T01:35:46.382Z,0
2022-08-17T01:36:47.063Z,0
2022-08-17T01:37:46.881Z,0
2022-08-17T01:38:46.613Z,0
2022-08-17T01:39:47.244Z,0
2022-08-17T01:40:46.858Z,0
2022-08-17T01:41:46.857Z,0
2022-08-17T01:42:47.158Z,0
2022-08-17T01:43:46.582Z,0
2022-08-17T01:44:47.558Z,0
2022-08-17T01:45:47.550Z,0
2022-08-17T01:46:47.806Z,0
2022-08-17T01:47:47.817Z,0
2022-08-17T01:48:47.719Z,0
2022-08-17T01:49:47.527Z,0
2022-08-17T01:50:48.902Z,0
2022-08-17T01:51:47.265Z,0
2022-08-17T01:52:47.634Z,0
2022-08-17T01:53:47.789Z,0
2022-08-17T01:54:47.502Z,0
2022-08-17T01:55:47.734Z,0
2022-08-17T01:56:49.737Z,0
2022-08-17T01:57:47.726Z,0
2022-08-17T01:58:47.456Z,0
2022-08-17T01:59:47.453Z,0
2022-08-17T02:01:07.738Z,0
2022-08-17T02:01:47.328Z,0
2022-08-17T02:02:47.889Z,0
2022-08-17T02:04:06.125Z,0
2022-08-17T02:04:47.161Z,0
2022-08-17T02:05:47.159Z,0
2022-08-17T02:07:00.519Z,0
2022-08-17T02:08:07.958Z,0
2022-08-17T02:09:18.950Z,0
2022-08-17T02:09:57.425Z,0
2022-08-17T02:10:53.999Z,0
2022-08-17T02:11:48.722Z,0
2022-08-17T02:12:48.013Z,0
2022-08-17T02:14:19.699Z,0
2022-08-17T02:14:47.367Z,0
2022-08-17T02:15:47.864Z,0
2022-08-17T02:16:47.606Z,0
2022-08-17T02:17:47.594Z,0
2022-08-17T02:18:47.840Z,0
2022-08-17T02:19:47.835Z,0
2022-08-17T02:20:49.660Z,0
2022-08-17T02:21:47.835Z,0
2022-08-17T02:22:47.843Z,0
2022-08-17T02:23:47.803Z,0
2022-08-17T02:25:07.330Z,0
2022-08-17T02:25:47.282Z,0
2022-08-17T02:26:47.778Z,0
2022-08-17T02:27:47.524Z,0
2022-08-17T02:28:47.249Z,0
2022-08-17T02:29:47.523Z,0
2022-08-17T02:31:09.469Z,0
2022-08-17T02:31:47.490Z,0
2022-08-17T02:32:47.816Z,0
2022-08-17T02:34:06.796Z,0
2022-08-17T02:34:47.466Z,0
2022-08-17T02:35:47.211Z,0
2022-08-17T02:36:47.709Z,0
2022-08-17T02:37:57.858Z,0
2022-08-17T02:38:47.454Z,0
2022-08-17T02:39:47.720Z,0
2022-08-17T02:40:49.967Z,0
2022-08-17T02:41:47.428Z,0
2022-08-17T02:42:47.313Z,0
2022-08-17T02:43:47.689Z,0
2022-08-17T02:44:47.656Z,0
2022-08-17T02:45:47.388Z,0
2022-08-17T02:46:47.385Z,0
2022-08-17T02:47:47.627Z,0
2022-08-17T02:48:47.356Z,0
2022-08-17T02:49:59.176Z,0
2022-08-17T02:50:47.099Z,0
2022-08-17T02:51:47.595Z,0
2022-08-17T02:53:10.305Z,0
2022-08-17T02:53:47.564Z,0
2022-08-17T02:54:49.692Z,0
2022-08-17T02:55:47.565Z,0
2022-08-17T02:56:47.545Z,0
2022-08-17T02:57:47.542Z,0
2022-08-17T02:58:47.534Z,0
2022-08-17T02:59:53.573Z,0
2022-08-17T03:00:47.529Z,0
2022-08-17T03:01:47.912Z,0
2022-08-17T03:02:47.162Z,0
2022-08-17T03:03:47.235Z,0
2022-08-17T03:04:47.247Z,0
2022-08-17T03:05:46.968Z,0
2022-08-17T03:06:47.231Z,0
2022-08-17T03:07:47.465Z,0
2022-08-17T03:08:47.462Z,0
2022-08-17T03:09:46.939Z,0
2022-08-17T03:10:47.453Z,0
2022-08-17T03:11:48.117Z,0
2022-08-17T03:12:47.351Z,0
2022-08-17T03:13:46.897Z,0
2022-08-17T03:14:48.506Z,0
2022-08-17T03:15:50.829Z,0
2022-08-17T03:16:46.884Z,0
2022-08-17T03:17:47.392Z,0
2022-08-17T03:18:47.123Z,0
2022-08-17T03:19:50.275Z,0
2022-08-17T03:20:47.360Z,0
2022-08-17T03:21:47.095Z,0
2022-08-17T03:23:05.029Z,0
2022-08-17T03:23:47.634Z,0
2022-08-17T03:24:47.180Z,0
2022-08-17T03:25:55.175Z,0
2022-08-17T03:26:47.061Z,0
2022-08-17T03:27:56.178Z,4
2022-08-17T03:28:47.053Z,4
2022-08-17T03:29:47.033Z,0
2022-08-17T03:30:46.793Z,4
2022-08-17T03:31:47.267Z,4
2022-08-17T03:32:47.185Z,4
2022-08-17T03:49:57.463Z,56
2022-08-17T03:50:57.215Z,64
2022-08-17T03:51:57.182Z,76
2022-08-17T03:53:03.346Z,84
2022-08-17T03:53:57.236Z,96
2022-08-17T03:54:57.159Z,104
2022-08-17T03:55:57.155Z,120
2022-08-17T03:56:57.251Z,132
2022-08-17T03:57:57.731Z,148
2022-08-17T03:58:56.866Z,164
2022-08-17T03:59:56.858Z,184
2022-08-17T04:00:57.094Z,204
2022-08-17T04:02:00.172Z,224
2022-08-17T04:02:56.996Z,244
2022-08-17T04:03:57.068Z,264
2022-08-17T04:04:57.254Z,288
2022-08-17T04:05:57.052Z,312
2022-08-17T04:06:57.129Z,340
2022-08-17T04:07:57.041Z,368
2022-08-17T04:08:57.035Z,400
2022-08-17T04:09:57.023Z,432
2022-08-17T04:10:57.010Z,464
2022-08-17T04:12:00.297Z,504
2022-08-17T04:12:57.756Z,544
2022-08-17T04:13:56.986Z,588
2022-08-17T04:15:01.264Z,632
2022-08-17T04:15:56.958Z,672
2022-08-17T04:16:56.973Z,716
2022-08-17T04:17:56.952Z,756
2022-08-17T04:18:56.937Z,796
2022-08-17T04:19:57.009Z,840
2022-08-17T04:20:59.021Z,880
2022-08-17T04:21:56.924Z,920
2022-08-17T04:23:00.452Z,960
2022-08-17T04:23:57.159Z,1000
2022-08-17T04:25:01.084Z,1036
2022-08-17T04:25:57.176Z,1068
2022-08-17T04:27:00.363Z,1108
2022-08-17T04:27:56.867Z,1140
2022-08-17T04:28:56.866Z,1172
2022-08-17T04:30:02.350Z,1208
2022-08-17T04:30:57.097Z,1240
2022-08-17T04:31:56.830Z,1272
2022-08-17T04:33:12.626Z,1312
2022-08-17T04:33:56.558Z,1336
2022-08-17T04:34:56.569Z,1372
2022-08-17T04:35:57.094Z,1412
2022-08-17T04:36:57.777Z,1452
2022-08-17T04:37:56.819Z,1496
2022-08-17T04:38:58.274Z,1548
2022-08-17T04:40:00.731Z,1596
2022-08-17T04:40:57.024Z,1648
2022-08-17T04:41:56.245Z,1700
2022-08-17T04:43:07.523Z,1752
2022-08-17T04:43:56.997Z,1788
2022-08-17T04:44:58.734Z,1820
2022-08-17T04:46:03.030Z,1844
2022-08-17T04:46:56.710Z,1860
2022-08-17T04:47:56.955Z,1868
2022-08-17T04:48:56.706Z,1880
2022-08-17T04:49:56.948Z,1888
2022-08-17T04:50:56.680Z,1904
2022-08-17T04:52:06.891Z,1928
2022-08-17T04:52:57.667Z,1956
2022-08-17T04:54:01.985Z,1988
2022-08-17T04:54:56.662Z,1996
2022-08-17T04:55:56.646Z,2000
2022-08-17T04:56:56.674Z,2000
2022-08-17T04:57:56.893Z,1992
2022-08-17T04:58:57.344Z,1984
2022-08-17T04:59:56.361Z,1972
2022-08-17T05:00:57.124Z,1960
2022-08-17T05:01:56.890Z,1948
2022-08-17T05:02:58.791Z,1956
2022-08-17T05:03:56.604Z,1996
2022-08-17T05:04:57.509Z,2080
2022-08-17T05:05:56.692Z,2160
2022-08-17T05:06:56.314Z,2212
2022-08-17T05:07:56.301Z,2256
2022-08-17T05:08:56.570Z,2312
2022-08-17T05:09:56.544Z,2340
2022-08-17T05:10:56.283Z,2320
2022-08-17T05:11:58.691Z,2300
2022-08-17T05:12:56.885Z,2308
2022-08-17T05:13:56.521Z,2340
2022-08-17T05:14:56.500Z,2416
2022-08-17T05:15:56.761Z,2512
2022-08-17T05:16:56.837Z,2560
2022-08-17T05:17:56.492Z,2564
2022-08-17T05:18:56.486Z,2532
2022-08-17T05:19:58.963Z,2480
2022-08-17T05:20:59.387Z,2448
2022-08-17T05:21:57.868Z,2464
2022-08-17T05:22:56.990Z,2524
2022-08-17T05:24:09.700Z,2620
2022-08-17T05:25:04.921Z,2676
2022-08-17T05:26:00.778Z,2744
2022-08-17T05:27:08.564Z,2848
2022-08-17T05:28:02.103Z,2992
2022-08-17T05:29:02.634Z,3144
2022-08-17T05:29:58.560Z,3232
2022-08-17T05:30:59.061Z,3348
2022-08-17T05:31:59.169Z,3408
2022-08-17T05:32:59.243Z,3420
2022-08-17T05:33:58.525Z,3412
2022-08-17T05:35:01.101Z,3372
2022-08-17T05:35:58.774Z,3360
2022-08-17T05:36:58.764Z,3344
2022-08-17T05:38:01.478Z,3320
2022-08-17T05:38:58.499Z,3300
2022-08-17T05:39:59.110Z,3268
2022-08-17T05:40:58.736Z,3212
2022-08-17T05:41:58.478Z,3176
2022-08-17T05:43:00.152Z,3112
2022-08-17T05:44:07.893Z,3016
2022-08-17T05:44:58.460Z,2960
2022-08-17T05:46:03.106Z,2996
2022-08-17T05:46:58.955Z,3048
2022-08-17T05:47:58.938Z,3068
2022-08-17T05:48:58.687Z,3088
2022-08-17T05:50:02.249Z,3124
2022-08-17T05:50:58.413Z,3132
2022-08-17T05:51:58.916Z,3088
2022-08-17T05:52:58.722Z,3056
2022-08-17T05:53:58.660Z,3124
2022-08-17T05:55:00.517Z,3248
2022-08-17T05:55:58.643Z,3308
2022-08-17T05:56:58.649Z,3356
2022-08-17T05:58:04.878Z,3436
2022-08-17T05:58:58.631Z,3448
2022-08-17T05:59:58.617Z,3456
2022-08-17T06:00:58.359Z,3600
2022-08-17T06:01:58.104Z,3712
2022-08-17T06:02:59.406Z,3764
2022-08-17T06:04:01.246Z,3772
2022-08-17T06:04:58.842Z,3744
2022-08-17T06:05:58.842Z,3736
2022-08-17T06:06:58.844Z,3720
2022-08-17T06:07:58.565Z,3680
2022-08-17T06:08:59.144Z,3672
2022-08-17T06:09:58.562Z,3728
2022-08-17T06:11:01.569Z,3776
2022-08-17T06:12:04.899Z,3732
2022-08-17T06:12:58.764Z,3644
2022-08-17T06:13:58.547Z,3624
2022-08-17T06:14:59.290Z,3648
2022-08-17T06:15:58.523Z,3636
2022-08-17T06:16:58.786Z,3596
2022-08-17T06:17:58.775Z,3516
2022-08-17T06:18:58.774Z,3492
2022-08-17T06:19:58.515Z,3452
2022-08-17T06:20:58.256Z,3324
2022-08-17T06:21:58.516Z,3316
2022-08-17T06:22:58.584Z,3360
2022-08-17T06:24:01.469Z,3384
2022-08-17T06:24:57.978Z,3360
2022-08-17T06:25:58.583Z,3212
2022-08-17T06:26:58.475Z,3232
2022-08-17T06:28:00.936Z,3248
2022-08-17T06:28:58.213Z,3220
2022-08-17T06:29:58.468Z,3220
2022-08-17T06:31:07.946Z,3304
2022-08-17T06:31:58.467Z,3380
2022-08-17T06:32:58.763Z,3452
2022-08-17T06:33:58.447Z,3488
2022-08-17T06:34:58.177Z,3516
2022-08-17T06:36:00.574Z,3564
2022-08-17T06:37:01.548Z,3568
2022-08-17T06:37:58.449Z,3588
2022-08-17T06:38:58.172Z,3664
2022-08-17T06:39:59.043Z,3676
2022-08-17T06:40:58.657Z,3748
2022-08-17T06:41:57.895Z,3804
2022-08-17T06:43:14.274Z,3904
2022-08-17T06:43:58.398Z,3960
2022-08-17T06:44:58.667Z,4016
2022-08-17T06:45:58.634Z,4180
2022-08-17T06:46:58.385Z,4404
2022-08-17T06:47:58.371Z,5012
2022-08-17T06:48:58.373Z,6976
2022-08-17T06:50:02.094Z,13316
2022-08-17T06:50:58.118Z,20608
2022-08-17T06:51:58.358Z,22656
2022-08-17T06:52:58.830Z,21632
2022-08-17T06:54:00.221Z,17760
2022-08-17T06:54:58.337Z,18784
2022-08-17T06:55:58.341Z,24256
2022-08-17T06:57:01.389Z,23904
2022-08-17T06:57:58.330Z,25056
2022-08-17T06:58:58.332Z,25312
2022-08-17T07:00:02.831Z,23392
2022-08-17T07:01:03.371Z,27936
2022-08-17T07:01:58.627Z,26912
2022-08-17T07:03:10.448Z,24000
2022-08-17T07:03:58.327Z,23072
2022-08-17T07:04:58.867Z,19296
2022-08-17T07:05:59.363Z,20224
2022-08-17T07:06:58.331Z,23904
2022-08-17T07:07:58.065Z,24480
2022-08-17T07:08:58.055Z,25984
2022-08-17T07:09:58.088Z,25664
2022-08-17T07:10:57.810Z,25792
2022-08-17T07:11:59.072Z,24416
2022-08-17T07:12:58.460Z,23456
2022-08-17T07:13:59.082Z,24224
2022-08-17T07:14:57.805Z,25216
2022-08-17T07:16:03.986Z,26848
2022-08-17T07:16:58.578Z,27232
2022-08-17T07:17:58.240Z,26752
2022-08-17T07:18:59.408Z,28384
2022-08-17T07:20:02.135Z,29504
2022-08-17T07:20:57.821Z,27008
2022-08-17T07:21:58.323Z,24992
2022-08-17T07:23:07.095Z,21088
2022-08-17T07:23:58.596Z,14988
2022-08-17T07:24:58.077Z,8996
2022-08-17T07:25:58.594Z,7644
2022-08-17T07:26:58.615Z,6840
2022-08-17T07:27:58.489Z,6952
2022-08-17T07:28:58.096Z,6856
2022-08-17T07:29:58.346Z,6768
2022-08-17T07:30:58.159Z,6676
2022-08-17T07:32:00.164Z,6656
2022-08-17T07:32:58.616Z,6536
2022-08-17T07:33:58.614Z,6540
2022-08-17T07:34:58.154Z,6624
2022-08-17T07:35:58.363Z,6596
2022-08-17T07:36:58.380Z,6372
2022-08-17T07:37:58.763Z,6180
2022-08-17T07:38:58.382Z,6144
2022-08-17T07:40:22.399Z,6188
2022-08-17T07:40:58.307Z,6208
2022-08-17T07:42:04.525Z,6288
2022-08-17T07:42:58.146Z,6328
2022-08-17T07:43:58.431Z,6312
2022-08-17T07:44:58.413Z,6232
2022-08-17T07:45:58.420Z,6232
2022-08-17T07:46:58.369Z,6308
2022-08-17T07:47:58.977Z,6396
2022-08-17T07:48:58.424Z,6336
2022-08-17T07:49:58.170Z,6468
2022-08-17T07:50:58.439Z,6412
2022-08-17T07:52:00.118Z,6280
2022-08-17T07:52:59.385Z,6140
2022-08-17T07:54:16.369Z,6036
2022-08-17T07:54:59.731Z,5928
2022-08-17T07:55:59.720Z,5788
2022-08-17T07:56:59.481Z,5760
2022-08-17T07:57:59.636Z,5660
2022-08-17T07:58:59.483Z,5484
2022-08-17T08:00:03.668Z,5444
2022-08-17T08:01:00.342Z,5480
2022-08-17T08:02:05.221Z,5528
2022-08-17T08:03:00.844Z,5552
2022-08-17T08:04:01.073Z,5460
2022-08-17T08:05:13.236Z,5300
2022-08-17T08:05:59.258Z,5428
2022-08-17T08:06:59.517Z,5588
2022-08-17T08:08:00.054Z,5548
2022-08-17T08:08:59.014Z,5544
2022-08-17T08:09:59.293Z,5524
2022-08-17T08:10:59.522Z,5488
2022-08-17T08:11:59.526Z,5484
2022-08-17T08:13:03.267Z,5480
2022-08-17T08:13:59.529Z,5292
2022-08-17T08:14:59.530Z,5200
2022-08-17T08:16:01.378Z,5264
2022-08-17T08:17:00.311Z,5344
2022-08-17T08:18:00.230Z,5252
2022-08-17T08:19:03.510Z,5316
2022-08-17T08:20:00.313Z,5440
2022-08-17T08:21:00.979Z,5512
2022-08-17T08:22:00.304Z,5484
2022-08-17T08:23:00.315Z,5436
2022-08-17T08:24:00.326Z,5276
2022-08-17T08:25:00.327Z,5092
2022-08-17T08:26:00.490Z,5084
2022-08-17T08:27:00.069Z,5032
2022-08-17T08:28:00.313Z,5036
2022-08-17T08:29:00.333Z,4972
2022-08-17T08:30:00.323Z,4960
2022-08-17T08:31:00.577Z,4952
2022-08-17T08:32:00.349Z,4968
2022-08-17T08:33:02.269Z,4992
2022-08-17T08:34:00.138Z,5004
2022-08-17T08:35:09.463Z,4956
2022-08-17T08:36:00.611Z,4936
2022-08-17T08:37:42.092Z,4768
2022-08-17T08:38:00.456Z,4764
2022-08-17T08:39:00.343Z,4628
2022-08-17T08:40:00.363Z,4580
2022-08-17T08:41:01.011Z,3948
2022-08-17T08:42:00.355Z,3940
2022-08-17T08:43:00.119Z,4004
2022-08-17T08:44:00.114Z,4332
2022-08-17T08:45:11.039Z,5280
2022-08-17T08:46:00.365Z,5220
2022-08-17T08:47:00.119Z,4976
2022-08-17T08:48:12.864Z,4820
2022-08-17T08:49:16.499Z,4300
2022-08-17T08:50:40.510Z,4820
2022-08-17T08:51:04.632Z,5004
2022-08-17T08:52:04.397Z,5056
2022-08-17T08:53:05.923Z,5068
2022-08-17T08:54:04.410Z,5472
2022-08-17T08:55:04.390Z,5228
2022-08-17T08:56:04.638Z,4692
2022-08-17T08:57:38.028Z,4780
2022-08-17T08:58:04.134Z,5220
2022-08-17T08:59:04.416Z,4880
2022-08-17T09:00:05.508Z,4564
2022-08-17T09:01:04.954Z,4252
2022-08-17T09:02:04.536Z,4224
2022-08-17T09:03:04.679Z,4268
2022-08-17T09:04:29.963Z,4100
2022-08-17T09:05:21.398Z,4172
2022-08-17T09:06:04.413Z,4316
2022-08-17T09:07:04.503Z,5048
2022-08-17T09:08:04.193Z,5872
2022-08-17T09:09:04.922Z,6636
2022-08-17T09:10:06.223Z,6620
2022-08-17T09:11:04.672Z,6564
2022-08-17T09:12:09.770Z,6200
2022-08-17T09:13:14.067Z,6296
2022-08-17T09:14:05.662Z,6376
2022-08-17T09:15:07.199Z,6288
2022-08-17T09:16:05.620Z,6372
2022-08-17T09:17:04.434Z,6368
2022-08-17T09:19:09.838Z,6436
2022-08-17T09:20:34.259Z,5556
2022-08-17T09:21:25.437Z,5372
2022-08-17T09:22:20.358Z,4908
2022-08-17T09:23:20.378Z,5492
2022-08-17T09:24:27.352Z,5816
2022-08-17T09:25:20.122Z,6508
2022-08-17T09:26:20.124Z,6624
2022-08-17T09:27:20.651Z,6412
2022-08-17T09:28:20.409Z,6208
2022-08-17T09:29:20.645Z,5984
2022-08-17T09:30:20.134Z,6128
2022-08-17T09:31:20.656Z,6820
2022-08-17T09:32:20.591Z,7008
2022-08-17T09:33:20.393Z,7608
2022-08-17T09:34:22.339Z,7544
2022-08-17T09:35:20.391Z,7232
2022-08-17T09:36:20.396Z,7056
2022-08-17T09:37:20.657Z,6872
2022-08-17T09:38:20.656Z,6988
2022-08-17T09:39:19.892Z,7208
2022-08-17T09:40:20.956Z,7040
2022-08-17T09:41:19.904Z,6600
2022-08-17T09:42:20.483Z,6164
2022-08-17T09:43:20.426Z,5672
2022-08-17T09:44:30.477Z,5296
2022-08-17T09:45:20.409Z,5216
2022-08-17T09:46:19.912Z,5248
2022-08-17T09:47:20.169Z,5280
2022-08-17T09:48:22.675Z,5240
2022-08-17T09:49:26.994Z,4896
2022-08-17T09:51:04.415Z,5400
2022-08-17T09:51:20.680Z,5400
2022-08-17T09:52:22.290Z,5568
2022-08-17T09:53:20.431Z,5536
2022-08-17T09:54:47.159Z,4784
2022-08-17T09:55:20.695Z,4884
2022-08-17T09:56:20.433Z,4844
2022-08-17T09:57:37.240Z,4504
2022-08-17T09:58:24.146Z,4172
2022-08-17T09:59:20.323Z,4024
2022-08-17T10:00:20.853Z,3820
2022-08-17T10:01:20.626Z,3856
2022-08-17T10:02:20.938Z,4028
2022-08-17T10:03:20.469Z,4240
2022-08-17T10:04:29.901Z,5120
2022-08-17T10:05:20.742Z,5296
2022-08-17T10:06:26.743Z,5496
2022-08-17T10:07:20.731Z,5980
2022-08-17T10:08:24.156Z,5944
2022-08-17T10:09:20.486Z,6016
2022-08-17T10:10:21.436Z,6472
2022-08-17T10:11:22.473Z,6952
2022-08-17T10:12:32.225Z,7076
2022-08-17T10:13:26.357Z,7464
2022-08-17T10:14:55.589Z,7596
2022-08-17T10:15:22.025Z,7492
2022-08-17T10:16:20.495Z,6356
2022-08-17T10:17:20.497Z,5992
2022-08-17T10:18:20.496Z,6232
2022-08-17T10:19:20.016Z,7180
2022-08-17T10:20:20.291Z,6404
2022-08-17T10:21:20.520Z,6068
2022-08-17T10:22:42.441Z,5696
2022-08-17T10:23:20.773Z,6044
2022-08-17T10:24:20.252Z,7172
2022-08-17T10:26:02.443Z,7412
2022-08-17T10:26:20.523Z,7388
2022-08-17T10:27:20.767Z,7416
2022-08-17T10:28:32.622Z,7024
2022-08-17T10:29:20.699Z,6804
2022-08-17T10:30:20.688Z,6920
2022-08-17T10:31:50.520Z,7028
2022-08-17T10:32:20.541Z,7056
2022-08-17T10:33:20.724Z,6652
2022-08-17T10:34:20.807Z,6656
2022-08-17T10:35:20.547Z,6788
2022-08-17T10:36:20.551Z,6860
2022-08-17T10:37:20.290Z,6312
2022-08-17T10:38:26.741Z,7036
2022-08-17T10:39:20.558Z,7660
2022-08-17T10:40:20.947Z,8716
2022-08-17T10:41:20.566Z,8904
2022-08-17T10:42:37.801Z,8240
2022-08-17T10:43:20.797Z,7828
2022-08-17T10:44:47.517Z,7352
2022-08-17T10:45:20.583Z,7336
2022-08-17T10:46:37.728Z,6728
2022-08-17T10:47:20.324Z,6592
2022-08-17T10:48:20.834Z,6392
2022-08-17T10:49:20.588Z,5976
2022-08-17T10:50:20.367Z,6104
2022-08-17T10:51:20.872Z,5580
2022-08-17T10:52:20.757Z,4892
2022-08-17T10:53:24.589Z,4780
2022-08-17T10:54:20.621Z,4876
2022-08-17T10:55:20.429Z,5332
2022-08-17T10:56:20.656Z,6064
2022-08-17T10:57:20.631Z,6248
2022-08-17T10:58:20.376Z,6356
2022-08-17T10:59:20.628Z,5924
2022-08-17T11:00:23.004Z,5832
2022-08-17T11:01:20.915Z,6328
2022-08-17T11:02:20.441Z,6120
2022-08-17T11:03:20.400Z,6188
2022-08-17T11:04:21.146Z,6812
2022-08-17T11:05:20.645Z,6552
2022-08-17T11:06:20.657Z,6496
2022-08-17T11:07:20.152Z,6296
2022-08-17T11:08:21.844Z,5860
2022-08-17T11:09:20.684Z,5352
2022-08-17T11:10:20.418Z,5264
2022-08-17T11:11:20.673Z,5236
2022-08-17T11:12:20.867Z,5280
2022-08-17T11:13:20.448Z,5204
2022-08-17T11:14:20.452Z,5248
2022-08-17T11:15:21.546Z,5224
2022-08-17T11:16:21.544Z,5148
2022-08-17T11:17:21.815Z,5072
2022-08-17T11:18:21.840Z,5016
2022-08-17T11:19:21.314Z,5044
2022-08-17T11:20:21.849Z,5244
2022-08-17T11:21:21.572Z,5264
2022-08-17T11:22:22.375Z,5244
2022-08-17T11:23:21.597Z,5508
2022-08-17T11:24:21.342Z,5504
2022-08-17T11:25:21.334Z,5648
2022-08-17T11:26:21.356Z,5372
2022-08-17T11:27:21.605Z,5436
2022-08-17T11:28:22.668Z,5680
2022-08-17T11:29:26.769Z,5780
2022-08-17T11:30:21.928Z,5808
2022-08-17T11:31:40.857Z,6028
2022-08-17T11:32:23.417Z,6080
2022-08-17T11:33:28.284Z,6000
2022-08-17T11:34:22.888Z,6064
2022-08-17T11:35:21.715Z,6336
2022-08-17T11:36:21.631Z,6508
2022-08-17T11:37:21.656Z,6520
2022-08-17T11:38:24.155Z,6516
2022-08-17T11:39:21.398Z,6536
2022-08-17T11:40:22.062Z,6612
2022-08-17T11:41:21.655Z,6684
2022-08-17T11:42:21.912Z,6532
2022-08-17T11:43:21.401Z,6096
2022-08-17T11:44:21.411Z,5908
2022-08-17T11:45:39.318Z,5792
2022-08-17T11:46:21.689Z,5824
2022-08-17T11:47:21.684Z,5912
2022-08-17T11:48:35.977Z,5808
2022-08-17T11:49:21.946Z,5920
2022-08-17T11:50:27.820Z,5952
2022-08-17T11:51:21.703Z,6004
2022-08-17T11:52:21.706Z,6012
2022-08-17T11:53:21.906Z,6060
2022-08-17T11:54:39.229Z,6276
2022-08-17T11:55:47.794Z,6728
2022-08-17T11:56:23.182Z,6868
2022-08-17T11:57:21.725Z,6884
2022-08-17T11:58:21.731Z,6964
2022-08-17T11:59:21.485Z,7012
2022-08-17T12:00:21.480Z,7080
2022-08-17T12:01:22.928Z,6924
2022-08-17T12:02:22.011Z,6816
2022-08-17T12:03:21.656Z,6696
2022-08-17T12:04:21.676Z,6556
2022-08-17T12:05:22.019Z,6496
2022-08-17T12:06:21.765Z,6432
2022-08-17T12:07:21.519Z,6376
2022-08-17T12:08:21.545Z,6264
2022-08-17T12:09:21.280Z,6424
2022-08-17T12:10:21.538Z,6616
2022-08-17T12:12:15.509Z,6476
2022-08-17T12:12:26.055Z,6492
2022-08-17T12:13:38.680Z,6616
2022-08-17T12:15:19.304Z,6452
2022-08-17T12:15:29.839Z,6416
2022-08-17T12:16:30.356Z,6364
2022-08-17T12:18:00.386Z,6744
2022-08-17T12:18:29.590Z,6936
2022-08-17T12:19:30.118Z,7644
2022-08-17T12:20:30.143Z,8456
2022-08-17T12:21:30.117Z,9000
2022-08-17T12:22:30.125Z,9164
2022-08-17T12:23:30.123Z,8984
2022-08-17T12:24:30.133Z,9340
2022-08-17T12:25:30.132Z,9480
2022-08-17T12:26:29.893Z,9052
2022-08-17T12:28:15.676Z,8456
2022-08-17T12:28:30.762Z,8516
2022-08-17T12:29:43.642Z,7948
2022-08-17T12:30:29.664Z,7620
2022-08-17T12:31:29.919Z,7644
2022-08-17T12:32:29.923Z,7696
2022-08-17T12:33:34.422Z,7576
2022-08-17T12:34:30.187Z,7340
2022-08-17T12:35:30.191Z,6972
2022-08-17T12:36:30.187Z,6492
2022-08-17T12:37:30.199Z,6224
2022-08-17T12:38:39.470Z,6216
2022-08-17T12:39:38.768Z,6332
2022-08-17T12:40:30.214Z,6300
2022-08-17T12:41:30.342Z,6320
2022-08-17T12:42:30.223Z,6568
2022-08-17T12:43:29.967Z,6480
2022-08-17T12:44:29.980Z,6280
2022-08-17T12:45:30.243Z,6168
2022-08-17T12:46:33.718Z,6312
2022-08-17T12:47:34.363Z,6332
2022-08-17T12:48:29.753Z,6132
2022-08-17T12:49:30.523Z,6048
2022-08-17T12:50:36.422Z,6044
2022-08-17T12:51:30.282Z,6228
2022-08-17T12:52:30.539Z,6320
2022-08-17T12:53:30.286Z,5868
2022-08-17T12:54:30.297Z,5876
2022-08-17T12:55:38.264Z,5848
2022-08-17T12:56:30.451Z,5656
2022-08-17T12:57:30.573Z,5708
2022-08-17T12:58:30.303Z,5704
2022-08-17T12:59:37.205Z,5540
2022-08-17T13:00:30.319Z,5508
2022-08-17T13:01:30.404Z,5340
2022-08-17T13:02:30.338Z,5140
2022-08-17T13:03:36.442Z,4960
2022-08-17T13:04:34.435Z,5176
2022-08-17T13:05:30.086Z,5672
2022-08-17T13:06:30.091Z,5968
2022-08-17T13:07:29.837Z,5744
2022-08-17T13:08:30.609Z,5360
2022-08-17T13:09:44.918Z,5444
2022-08-17T13:10:37.637Z,5732
2022-08-17T13:11:29.863Z,5772
2022-08-17T13:12:30.123Z,5512
2022-08-17T13:13:30.391Z,5212
2022-08-17T13:14:30.980Z,5036
2022-08-17T13:15:30.141Z,4932
2022-08-17T13:16:29.902Z,4904
2022-08-17T13:17:30.392Z,4916
2022-08-17T13:18:30.655Z,4884
2022-08-17T13:19:47.271Z,4856
2022-08-17T13:20:30.163Z,4844
2022-08-17T13:21:30.167Z,4764
2022-08-17T13:22:30.423Z,4420
2022-08-17T13:23:31.161Z,4568
2022-08-17T13:24:30.202Z,4216
2022-08-17T13:25:29.929Z,4408
2022-08-17T13:26:30.192Z,4284
2022-08-17T13:27:29.933Z,3824
2022-08-17T13:28:42.549Z,3684
2022-08-17T13:29:30.713Z,3660
2022-08-17T13:30:29.961Z,3604
2022-08-17T13:31:30.477Z,3524
2022-08-17T13:32:35.748Z,3424
2022-08-17T13:33:52.209Z,3340
2022-08-17T13:34:35.646Z,3304
2022-08-17T13:35:47.141Z,3272
2022-08-17T13:36:36.114Z,3276
2022-08-17T13:37:31.351Z,3268
2022-08-17T13:38:30.765Z,3224
2022-08-17T13:39:30.781Z,3248
2022-08-17T13:40:31.072Z,3288
2022-08-17T13:41:31.330Z,3464
2022-08-17T13:42:31.332Z,3468
2022-08-17T13:43:31.081Z,3260
2022-08-17T13:44:30.834Z,3128
2022-08-17T13:45:44.718Z,3120
2022-08-17T13:46:31.097Z,3212
2022-08-17T13:47:31.103Z,3332
2022-08-17T13:48:31.102Z,3376
2022-08-17T13:49:54.063Z,3476
2022-08-17T13:50:31.113Z,3600
2022-08-17T13:51:31.149Z,3784
2022-08-17T13:52:35.577Z,3980
2022-08-17T13:53:33.435Z,4228
2022-08-17T13:54:31.403Z,4208
2022-08-17T13:55:31.133Z,4480
2022-08-17T13:56:45.675Z,4516
2022-08-17T13:57:31.393Z,4624
2022-08-17T13:58:31.405Z,4632